createdAt,value
2018-08-03T00:00:27.834Z,0.00
2018-08-03T00:01:27.702Z,0.00
2018-08-03T00:02:27.622Z,0.00
2018-08-03T00:05:09.776Z,0.00
2018-08-03T00:06:09.671Z,0.00
2018-08-03T00:07:09.600Z,0.00
2018-08-03T00:08:09.514Z,0.00
2018-08-03T00:09:09.426Z,0.00
2018-08-03T00:11:51.749Z,0.00
2018-08-03T00:12:51.679Z,0.00
2018-08-03T00:13:51.641Z,0.00
2018-08-03T00:14:51.507Z,0.00
2018-08-03T00:15:51.472Z,0.00
2018-08-03T00:18:33.759Z,0.00
2018-08-03T00:19:33.671Z,0.00
2018-08-03T00:20:33.733Z,0.00
2018-08-03T00:21:33.523Z,0.00
2018-08-03T00:22:33.450Z,0.00
2018-08-03T00:25:15.771Z,0.00
2018-08-03T00:26:15.667Z,0.00
2018-08-03T00:33:31.475Z,0.00
2018-08-03T00:34:31.398Z,0.00
2018-08-03T00:37:13.255Z,0.00
2018-08-03T00:38:13.167Z,0.00
2018-08-03T00:39:13.126Z,0.00
2018-08-03T00:40:13.016Z,0.00
2018-08-03T00:41:12.931Z,0.00
2018-08-03T00:42:12.866Z,0.00
2018-08-03T00:43:12.826Z,0.00
2018-08-03T00:44:12.786Z,0.00
2018-08-03T00:45:12.697Z,0.00
2018-08-03T00:46:12.582Z,0.00
2018-08-03T00:47:12.477Z,0.00
2018-08-03T00:48:12.419Z,0.00
2018-08-03T00:49:12.358Z,0.00
2018-08-03T00:50:12.279Z,0.00
2018-08-03T00:51:12.199Z,0.00
2018-08-03T00:52:12.121Z,0.00
2018-08-03T00:53:12.029Z,0.00
2018-08-03T00:54:11.971Z,0.00
2018-08-03T00:55:11.875Z,0.00
2018-08-03T00:56:11.838Z,0.00
2018-08-03T00:57:12.199Z,0.00
2018-08-03T00:58:11.653Z,0.00
2018-08-03T00:59:11.567Z,0.00
2018-08-03T01:00:11.494Z,0.00
2018-08-03T01:01:11.443Z,0.00
2018-08-03T01:02:11.334Z,0.00
2018-08-03T01:03:11.272Z,0.00
2018-08-03T01:04:11.338Z,0.00
2018-08-03T01:05:11.132Z,0.00
2018-08-03T01:06:11.073Z,0.00
2018-08-03T01:07:10.957Z,0.00
2018-08-03T01:08:10.895Z,0.00
2018-08-03T01:09:10.813Z,0.00
2018-08-03T01:10:10.740Z,0.00
2018-08-03T01:11:10.681Z,0.00
2018-08-03T01:12:11.643Z,0.00
2018-08-03T01:13:10.505Z,0.00
2018-08-03T01:14:10.427Z,0.00
2018-08-03T01:15:10.335Z,0.00
2018-08-03T01:16:10.276Z,0.00
2018-08-03T01:17:10.203Z,0.00
2018-08-03T01:18:10.120Z,0.00
2018-08-03T01:19:10.033Z,0.00
2018-08-03T01:20:09.959Z,0.00
2018-08-03T01:21:09.966Z,0.00
2018-08-03T01:22:09.852Z,0.00
2018-08-03T01:23:09.725Z,0.00
2018-08-03T01:25:51.760Z,0.00
2018-08-03T01:26:51.694Z,0.00
2018-08-03T01:27:51.624Z,0.00
2018-08-03T01:30:33.757Z,0.00
2018-08-03T01:31:33.681Z,0.00
2018-08-03T01:32:33.640Z,0.00
2018-08-03T01:33:33.566Z,0.00
2018-08-03T01:34:33.459Z,0.00
2018-08-03T01:35:36.331Z,0.00
2018-08-03T01:36:33.298Z,0.00
2018-08-03T01:37:33.293Z,0.00
2018-08-03T01:38:33.180Z,0.00
2018-08-03T01:39:33.086Z,0.00
2018-08-03T01:40:32.986Z,0.00
2018-08-03T01:41:32.926Z,0.00
2018-08-03T01:42:32.841Z,0.00
2018-08-03T01:43:33.781Z,0.00
2018-08-03T01:44:32.704Z,0.00
2018-08-03T01:48:19.779Z,0.00
2018-08-03T01:49:19.698Z,0.00
2018-08-03T01:50:19.610Z,0.00
2018-08-03T01:51:19.545Z,0.00
2018-08-03T01:52:19.458Z,0.00
2018-08-03T01:53:19.426Z,0.00
2018-08-03T01:54:19.332Z,0.00
2018-08-03T01:55:19.238Z,0.00
2018-08-03T01:56:19.145Z,0.00
2018-08-03T01:57:19.078Z,0.00
2018-08-03T01:58:19.030Z,0.00
2018-08-03T01:59:18.950Z,0.00
2018-08-03T02:00:18.840Z,0.00
2018-08-03T02:01:19.028Z,0.00
2018-08-03T02:02:18.702Z,0.00
2018-08-03T02:03:18.666Z,0.00
2018-08-03T02:04:18.568Z,0.00
2018-08-03T02:05:18.493Z,0.00
2018-08-03T02:06:18.397Z,0.00
2018-08-03T02:07:18.402Z,0.00
2018-08-03T02:08:18.240Z,0.00
2018-08-03T02:09:18.199Z,0.00
2018-08-03T02:10:18.097Z,0.00
2018-08-03T02:11:18.015Z,0.00
2018-08-03T02:12:17.927Z,0.00
2018-08-03T02:13:17.872Z,0.00
2018-08-03T02:14:17.764Z,0.00
2018-08-03T02:15:18.749Z,0.00
2018-08-03T02:16:17.629Z,0.00
2018-08-03T02:17:17.557Z,0.00
2018-08-03T02:18:17.546Z,0.00
2018-08-03T02:19:17.398Z,0.00
2018-08-03T02:20:17.349Z,0.00
2018-08-03T02:21:17.239Z,0.00
2018-08-03T02:22:17.163Z,0.00
2018-08-03T02:23:17.092Z,0.00
2018-08-03T02:24:17.000Z,0.00
2018-08-03T02:25:17.001Z,0.00
2018-08-03T02:26:16.856Z,0.00
2018-08-03T02:27:16.813Z,0.00
2018-08-03T02:28:16.700Z,0.00
2018-08-03T02:29:16.619Z,0.00
2018-08-03T02:30:16.645Z,0.00
2018-08-03T02:31:16.476Z,0.00
2018-08-03T02:32:16.379Z,0.00
2018-08-03T02:33:16.350Z,0.00
2018-08-03T02:34:16.232Z,0.00
2018-08-03T02:35:16.197Z,0.00
2018-08-03T02:36:16.076Z,0.00
2018-08-03T02:37:16.010Z,0.00
2018-08-03T02:38:15.914Z,0.00
2018-08-03T02:39:15.859Z,0.00
2018-08-03T02:40:15.800Z,0.00
2018-08-03T02:41:15.703Z,0.00
2018-08-03T02:42:15.612Z,0.00
2018-08-03T02:43:15.536Z,0.00
2018-08-03T02:44:15.476Z,0.00
2018-08-03T02:46:57.312Z,0.00
2018-08-03T02:49:39.288Z,0.00
2018-08-03T02:50:40.236Z,0.00
2018-08-03T02:51:39.124Z,0.00
2018-08-03T02:54:21.391Z,0.00
2018-08-03T02:55:21.237Z,0.00
2018-08-03T02:56:21.143Z,0.00
2018-08-03T03:22:42.898Z,0.00
2018-08-03T03:23:42.780Z,4.00
2018-08-03T03:24:42.742Z,4.00
2018-08-03T03:25:42.624Z,0.00
2018-08-03T03:26:42.583Z,4.00
2018-08-03T03:27:42.589Z,4.00
2018-08-03T03:28:42.406Z,4.00
2018-08-03T03:29:42.334Z,4.00
2018-08-03T03:30:42.250Z,4.00
2018-08-03T03:31:42.166Z,8.00
2018-08-03T03:32:42.164Z,8.00
2018-08-03T03:33:42.036Z,8.00
2018-08-03T03:36:24.324Z,8.00
2018-08-03T03:37:24.220Z,12.00
2018-08-03T03:38:24.195Z,16.00
2018-08-03T03:39:24.091Z,16.00
2018-08-03T03:40:23.997Z,20.00
2018-08-03T03:41:23.932Z,24.00
2018-08-03T03:42:23.835Z,28.00
2018-08-03T03:43:23.774Z,32.00
2018-08-03T03:44:23.729Z,32.00
2018-08-03T03:45:23.629Z,40.00
2018-08-03T03:46:23.575Z,44.00
2018-08-03T03:47:23.567Z,48.00
2018-08-03T03:48:23.469Z,56.00
2018-08-03T03:49:23.351Z,60.00
2018-08-03T03:50:23.243Z,68.00
2018-08-03T03:51:23.236Z,76.00
2018-08-03T03:52:23.066Z,84.00
2018-08-03T03:53:23.124Z,92.00
2018-08-03T03:54:22.947Z,104.00
2018-08-03T03:55:22.934Z,116.00
2018-08-03T03:56:22.764Z,124.00
2018-08-03T03:57:22.710Z,136.00
2018-08-03T03:58:22.615Z,148.00
2018-08-03T03:59:22.676Z,160.00
2018-08-03T04:00:22.588Z,172.00
2018-08-03T04:01:22.492Z,188.00
2018-08-03T04:02:22.293Z,200.00
2018-08-03T04:03:22.219Z,216.00
2018-08-03T04:04:22.191Z,232.00
2018-08-03T04:05:22.075Z,248.00
2018-08-03T04:06:22.016Z,268.00
2018-08-03T04:07:21.971Z,284.00
2018-08-03T04:08:21.828Z,300.00
2018-08-03T04:09:21.765Z,324.00
2018-08-03T04:10:21.717Z,340.00
2018-08-03T04:11:21.627Z,364.00
2018-08-03T04:12:21.743Z,384.00
2018-08-03T04:13:21.458Z,404.00
2018-08-03T04:14:21.377Z,432.00
2018-08-03T04:15:21.335Z,452.00
2018-08-03T04:16:21.266Z,472.00
2018-08-03T04:17:21.150Z,500.00
2018-08-03T04:18:21.067Z,528.00
2018-08-03T04:19:21.080Z,552.00
2018-08-03T04:20:20.923Z,580.00
2018-08-03T04:21:20.842Z,612.00
2018-08-03T04:22:20.754Z,636.00
2018-08-03T04:23:20.788Z,668.00
2018-08-03T04:24:20.696Z,692.00
2018-08-03T04:25:20.541Z,724.00
2018-08-03T04:26:20.473Z,752.00
2018-08-03T04:27:20.371Z,784.00
2018-08-03T04:28:20.290Z,816.00
2018-08-03T04:29:20.284Z,848.00
2018-08-03T04:30:20.168Z,876.00
2018-08-03T04:31:20.118Z,908.00
2018-08-03T04:32:19.992Z,944.00
2018-08-03T04:33:19.914Z,976.00
2018-08-03T04:34:19.850Z,1008.00
2018-08-03T04:35:19.776Z,1040.00
2018-08-03T04:36:19.677Z,1072.00
2018-08-03T04:39:01.873Z,1160.00
2018-08-03T04:40:01.746Z,1192.00
2018-08-03T04:41:01.703Z,1228.00
2018-08-03T04:42:01.586Z,1256.00
2018-08-03T04:43:01.676Z,1292.00
2018-08-03T04:44:01.438Z,1324.00
2018-08-03T04:45:01.343Z,1360.00
2018-08-03T04:46:02.318Z,1392.00
2018-08-03T04:47:01.190Z,1428.00
2018-08-03T04:48:01.133Z,1460.00
2018-08-03T04:49:01.040Z,1500.00
2018-08-03T04:50:00.974Z,1532.00
2018-08-03T04:51:00.918Z,1568.00
2018-08-03T04:52:00.815Z,1596.00
2018-08-03T04:53:00.728Z,1636.00
2018-08-03T04:54:00.661Z,1664.00
2018-08-03T04:55:00.707Z,1696.00
2018-08-03T04:56:00.556Z,1724.00
2018-08-03T04:57:00.430Z,1760.00
2018-08-03T04:58:00.351Z,1792.00
2018-08-03T04:59:00.265Z,1824.00
2018-08-03T05:00:00.210Z,1856.00
2018-08-03T05:01:00.138Z,1888.00
2018-08-03T05:02:00.062Z,1928.00
2018-08-03T05:02:59.954Z,1964.00
2018-08-03T05:03:59.885Z,2004.00
2018-08-03T05:04:59.815Z,2036.00
2018-08-03T05:05:59.774Z,2072.00
2018-08-03T05:06:59.656Z,2112.00
2018-08-03T05:07:59.596Z,2144.00
2018-08-03T05:08:59.496Z,2180.00
2018-08-03T05:09:59.436Z,2208.00
2018-08-03T05:10:59.353Z,2248.00
2018-08-03T05:13:41.358Z,2340.00
2018-08-03T05:16:23.353Z,2440.00
2018-08-03T05:17:24.283Z,2472.00
2018-08-03T05:18:23.177Z,2504.00
2018-08-03T05:19:23.255Z,2532.00
2018-08-03T05:20:23.025Z,2564.00
2018-08-03T05:21:22.974Z,2608.00
2018-08-03T05:22:22.888Z,2636.00
2018-08-03T05:23:22.821Z,2672.00
2018-08-03T05:24:22.792Z,2712.00
2018-08-03T05:25:22.643Z,2744.00
2018-08-03T05:26:22.559Z,2780.00
2018-08-03T05:27:22.506Z,2816.00
2018-08-03T05:28:22.437Z,2852.00
2018-08-03T05:29:22.335Z,2884.00
2018-08-03T05:30:22.285Z,2920.00
2018-08-03T05:31:22.362Z,2948.00
2018-08-03T05:32:22.110Z,2988.00
2018-08-03T05:33:22.110Z,3024.00
2018-08-03T05:34:21.967Z,3064.00
2018-08-03T05:35:21.998Z,3116.00
2018-08-03T05:36:21.840Z,3132.00
2018-08-03T05:37:21.789Z,3160.00
2018-08-03T05:38:21.666Z,3196.00
2018-08-03T05:39:21.609Z,3220.00
2018-08-03T05:40:21.488Z,3252.00
2018-08-03T05:41:21.511Z,3280.00
2018-08-03T05:42:21.348Z,3312.00
2018-08-03T05:43:21.379Z,3348.00
2018-08-03T05:44:21.180Z,3376.00
2018-08-03T05:45:21.167Z,3412.00
2018-08-03T05:46:21.027Z,3448.00
2018-08-03T05:47:21.044Z,3472.00
2018-08-03T05:48:20.907Z,3512.00
2018-08-03T05:49:20.856Z,3540.00
2018-08-03T05:50:20.750Z,3572.00
2018-08-03T05:51:20.759Z,3596.00
2018-08-03T05:52:20.573Z,3632.00
2018-08-03T05:53:20.611Z,3668.00
2018-08-03T05:54:20.457Z,3692.00
2018-08-03T05:55:20.483Z,3732.00
2018-08-03T05:56:20.267Z,3764.00
2018-08-03T05:57:20.280Z,3788.00
2018-08-03T05:58:20.234Z,3820.00
2018-08-03T05:59:20.110Z,3848.00
2018-08-03T06:00:20.050Z,3892.00
2018-08-03T06:01:19.911Z,3916.00
2018-08-03T06:02:19.815Z,3956.00
2018-08-03T06:03:19.818Z,3992.00
2018-08-03T06:04:19.660Z,4036.00
2018-08-03T06:05:20.696Z,4088.00
2018-08-03T06:06:19.493Z,4144.00
2018-08-03T06:07:19.546Z,4196.00
2018-08-03T06:08:19.366Z,4256.00
2018-08-03T06:09:19.352Z,4336.00
2018-08-03T06:10:19.224Z,4424.00
2018-08-03T06:13:01.360Z,4800.00
2018-08-03T06:15:43.375Z,6844.00
2018-08-03T06:16:43.482Z,7840.00
2018-08-03T06:17:43.194Z,8288.00
2018-08-03T06:18:43.168Z,8452.00
2018-08-03T06:19:43.063Z,8536.00
2018-08-03T06:20:43.088Z,8632.00
2018-08-03T06:21:42.913Z,8744.00
2018-08-03T06:22:42.878Z,8840.00
2018-08-03T06:23:42.872Z,8916.00
2018-08-03T06:24:42.731Z,8988.00
2018-08-03T06:25:42.609Z,9056.00
2018-08-03T06:26:42.647Z,9104.00
2018-08-03T06:27:42.457Z,9192.00
2018-08-03T06:28:42.530Z,9260.00
2018-08-03T06:29:42.334Z,9396.00
2018-08-03T06:30:42.275Z,9508.00
2018-08-03T06:41:22.773Z,9992.00
2018-08-03T06:42:23.704Z,9912.00
2018-08-03T06:43:22.605Z,10060.00
2018-08-03T06:46:04.864Z,10208.00
2018-08-03T06:47:04.915Z,10260.00
2018-08-03T06:48:04.729Z,10376.00
2018-08-03T06:49:04.680Z,10484.00
2018-08-03T06:50:04.586Z,10540.00
2018-08-03T06:51:04.523Z,10636.00
2018-08-03T06:52:04.517Z,10676.00
2018-08-03T06:53:04.376Z,10728.00
2018-08-03T06:54:04.301Z,10912.00
2018-08-03T06:55:04.242Z,10900.00
2018-08-03T06:56:04.182Z,11012.00
2018-08-03T06:57:04.120Z,11160.00
2018-08-03T06:58:04.066Z,11452.00
2018-08-03T07:00:45.913Z,13380.00
2018-08-03T07:01:45.867Z,13584.00
2018-08-03T07:02:45.777Z,13612.00
2018-08-03T07:03:45.668Z,14240.00
2018-08-03T07:04:45.588Z,14560.00
2018-08-03T07:05:45.552Z,14528.00
2018-08-03T07:06:45.451Z,14976.00
2018-08-03T07:07:45.423Z,15296.00
2018-08-03T07:08:45.351Z,15520.00
2018-08-03T07:09:45.281Z,15552.00
2018-08-03T07:10:45.189Z,15840.00
2018-08-03T07:11:45.126Z,16256.00
2018-08-03T07:12:45.059Z,16320.00
2018-08-03T07:13:45.081Z,16416.00
2018-08-03T07:14:44.954Z,16960.00
2018-08-03T07:15:44.863Z,17088.00
2018-08-03T07:16:44.797Z,17088.00
2018-08-03T07:17:44.729Z,17536.00
2018-08-03T07:18:44.676Z,17696.00
2018-08-03T07:19:44.610Z,17792.00
2018-08-03T07:20:44.524Z,18432.00
2018-08-03T07:21:44.448Z,18880.00
2018-08-03T07:22:44.492Z,19200.00
2018-08-03T07:23:44.366Z,19520.00
2018-08-03T07:24:44.278Z,19776.00
2018-08-03T07:25:44.207Z,20448.00
2018-08-03T07:26:44.187Z,20704.00
2018-08-03T07:27:44.054Z,20896.00
2018-08-03T07:28:44.042Z,21600.00
2018-08-03T07:29:43.932Z,21792.00
2018-08-03T07:30:43.866Z,22304.00
2018-08-03T07:31:43.832Z,22848.00
2018-08-03T07:32:43.704Z,22560.00
2018-08-03T07:33:43.633Z,23008.00
2018-08-03T07:34:43.615Z,23744.00
2018-08-03T07:35:43.542Z,24096.00
2018-08-03T07:36:43.447Z,23328.00
2018-08-03T07:37:43.385Z,23456.00
2018-08-03T07:38:43.331Z,24128.00
2018-08-03T07:39:43.294Z,24224.00
2018-08-03T07:40:43.176Z,24576.00
2018-08-03T07:41:43.154Z,25312.00
2018-08-03T07:42:43.019Z,26176.00
2018-08-03T07:43:42.977Z,26848.00
2018-08-03T07:44:42.991Z,27264.00
2018-08-03T07:45:42.834Z,27296.00
2018-08-03T07:46:42.767Z,27552.00
2018-08-03T07:47:42.703Z,28512.00
2018-08-03T07:48:42.689Z,29344.00
2018-08-03T07:49:42.578Z,29504.00
2018-08-03T07:50:42.646Z,29440.00
2018-08-03T07:51:42.441Z,29824.00
2018-08-03T07:52:42.399Z,30368.00
2018-08-03T07:53:42.305Z,30560.00
2018-08-03T07:54:42.245Z,29984.00
2018-08-03T07:55:42.211Z,30176.00
2018-08-03T07:56:42.135Z,31104.00
2018-08-03T07:57:42.048Z,31584.00
2018-08-03T07:58:41.984Z,31616.00
2018-08-03T07:59:41.914Z,32480.00
2018-08-03T08:00:41.851Z,33440.00
2018-08-03T08:01:41.807Z,34464.00
2018-08-03T08:02:41.771Z,35136.00
2018-08-03T08:03:41.653Z,34944.00
2018-08-03T08:04:41.744Z,35072.00
2018-08-03T08:05:41.561Z,35904.00
2018-08-03T08:06:41.476Z,36320.00
2018-08-03T08:07:41.429Z,37280.00
2018-08-03T08:08:41.324Z,38304.00
2018-08-03T08:09:41.332Z,38336.00
2018-08-03T08:10:41.210Z,38080.00
2018-08-03T08:11:41.210Z,37888.00
2018-08-03T08:12:41.079Z,38656.00
2018-08-03T08:13:41.022Z,38080.00
2018-08-03T08:14:40.941Z,37920.00
2018-08-03T08:15:40.965Z,39200.00
2018-08-03T08:16:40.813Z,40000.00
2018-08-03T08:17:40.781Z,40032.00
2018-08-03T08:18:40.675Z,40032.00
2018-08-03T08:19:40.619Z,40352.00
2018-08-03T08:20:40.551Z,41248.00
2018-08-03T08:21:40.504Z,42048.00
2018-08-03T08:22:40.439Z,41760.00
2018-08-03T08:23:40.379Z,42368.00
2018-08-03T08:24:40.295Z,42592.00
2018-08-03T08:25:40.231Z,43360.00
2018-08-03T08:26:40.164Z,43104.00
2018-08-03T08:27:40.121Z,42720.00
2018-08-03T08:28:40.086Z,43264.00
2018-08-03T08:29:40.022Z,43776.00
2018-08-03T08:30:39.916Z,43712.00
2018-08-03T08:31:39.884Z,44000.00
2018-08-03T08:32:39.812Z,44960.00
2018-08-03T08:33:39.755Z,45760.00
2018-08-03T08:34:39.659Z,47168.00
2018-08-03T08:35:39.578Z,45760.00
2018-08-03T08:36:39.519Z,42240.00
2018-08-03T08:37:39.477Z,40128.00
2018-08-03T08:38:39.427Z,41056.00
2018-08-03T08:39:40.370Z,42720.00
2018-08-03T08:40:39.260Z,44320.00
2018-08-03T08:41:39.292Z,46336.00
2018-08-03T08:42:39.139Z,48096.00
2018-08-03T08:43:39.179Z,49216.00
2018-08-03T08:44:39.051Z,48960.00
2018-08-03T08:45:38.956Z,49344.00
2018-08-03T08:46:38.910Z,50400.00
2018-08-03T08:47:38.827Z,50496.00
2018-08-03T08:48:38.774Z,50272.00
2018-08-03T08:49:38.733Z,50272.00
2018-08-03T08:50:38.642Z,49568.00
2018-08-03T08:51:38.569Z,49632.00
2018-08-03T08:52:38.496Z,51072.00
2018-08-03T08:53:38.451Z,51808.00
2018-08-03T08:54:38.445Z,52960.00
2018-08-03T08:55:38.329Z,52672.00
2018-08-03T08:56:38.264Z,53888.00
2018-08-03T08:57:38.260Z,53888.00
2018-08-03T08:58:38.157Z,54432.00
2018-08-03T08:59:38.147Z,54880.00
2018-08-03T09:00:37.984Z,55232.00
2018-08-03T09:01:37.940Z,55616.00
2018-08-03T09:02:37.984Z,56704.00
2018-08-03T09:03:37.832Z,58144.00
2018-08-03T09:04:37.785Z,57920.00
2018-08-03T09:05:37.711Z,57984.00
2018-08-03T09:06:37.628Z,58432.00
2018-08-03T09:07:37.676Z,59072.00
2018-08-03T09:08:37.501Z,60480.00
2018-08-03T09:09:37.568Z,59520.00
2018-08-03T09:10:37.421Z,61024.00
2018-08-03T09:13:19.421Z,61088.00
2018-08-03T09:14:19.390Z,98368.00
2018-08-03T09:15:19.312Z,61248.00
2018-08-03T09:16:19.306Z,107264.00
2018-08-03T09:17:19.176Z,66592.00
2018-08-03T09:20:01.456Z,62688.00
2018-08-03T09:21:01.414Z,63008.00
2018-08-03T09:41:41.328Z,69728.00
2018-08-03T09:42:41.276Z,70176.00
2018-08-03T09:43:41.201Z,72352.00
2018-08-03T09:44:41.136Z,72768.00
2018-08-03T09:45:41.059Z,71616.00
2018-08-03T09:46:41.069Z,71936.00
2018-08-03T09:47:40.933Z,72192.00
2018-08-03T09:48:41.018Z,72736.00
2018-08-03T09:49:40.861Z,74528.00
2018-08-03T09:50:40.808Z,75936.00
2018-08-03T09:51:40.719Z,75584.00
2018-08-03T09:52:40.691Z,75488.00
2018-08-03T09:53:40.584Z,73952.00
2018-08-03T09:54:40.537Z,72192.00
2018-08-03T09:55:40.460Z,70976.00
2018-08-03T09:56:40.419Z,71168.00
2018-08-03T09:57:40.372Z,73088.00
2018-08-03T09:58:40.298Z,73056.00
2018-08-03T09:59:40.236Z,74176.00
2018-08-03T10:02:22.482Z,74112.00
2018-08-03T10:05:04.458Z,76864.00
2018-08-03T10:06:04.584Z,77696.00
2018-08-03T10:07:04.698Z,78752.00
2018-08-03T10:08:04.737Z,79200.00
2018-08-03T10:09:04.702Z,77120.00
2018-08-03T10:10:04.144Z,76736.00
2018-08-03T10:11:04.089Z,76640.00
2018-08-03T10:12:04.051Z,74880.00
2018-08-03T10:13:03.961Z,75136.00
2018-08-03T10:14:04.033Z,76672.00
2018-08-03T10:15:03.858Z,79040.00
2018-08-03T10:16:03.799Z,81024.00
2018-08-03T10:17:03.745Z,82112.00
2018-08-03T10:18:03.711Z,83776.00
2018-08-03T10:19:03.642Z,83168.00
2018-08-03T10:20:03.577Z,78112.00
2018-08-03T10:21:03.500Z,66528.00
2018-08-03T10:22:03.460Z,59040.00
2018-08-03T10:23:03.539Z,57952.00
2018-08-03T10:24:03.365Z,61152.00
2018-08-03T10:25:03.282Z,64768.00
2018-08-03T10:26:03.219Z,66304.00
2018-08-03T10:27:03.187Z,67872.00
2018-08-03T10:28:03.088Z,70272.00
2018-08-03T10:29:03.057Z,71840.00
2018-08-03T10:30:02.977Z,70816.00
2018-08-03T10:31:02.918Z,72128.00
2018-08-03T10:32:03.020Z,71840.00
2018-08-03T10:33:02.810Z,71392.00
2018-08-03T10:34:02.751Z,71456.00
2018-08-03T10:35:02.694Z,72320.00
2018-08-03T10:36:02.617Z,72800.00
2018-08-03T10:37:02.549Z,74016.00
2018-08-03T10:38:02.496Z,74336.00
2018-08-03T10:39:02.465Z,72352.00
2018-08-03T10:40:02.374Z,70560.00
2018-08-03T10:41:02.326Z,69856.00
2018-08-03T10:43:44.434Z,69184.00
2018-08-03T10:44:45.463Z,70400.00
2018-08-03T10:45:44.317Z,69856.00
2018-08-03T10:46:44.267Z,65920.00
2018-08-03T10:47:44.192Z,61344.00
2018-08-03T10:48:44.229Z,58976.00
2018-08-03T10:49:44.140Z,62240.00
2018-08-03T10:50:44.208Z,68864.00
2018-08-03T10:51:43.961Z,79008.00
2018-08-03T10:52:43.922Z,87200.00
2018-08-03T10:53:43.865Z,90144.00
2018-08-03T10:54:43.829Z,87712.00
2018-08-03T10:55:43.764Z,86304.00
2018-08-03T10:56:43.686Z,88288.00
2018-08-03T10:57:43.657Z,89376.00
2018-08-03T10:58:43.566Z,89920.00
2018-08-03T10:59:43.601Z,92096.00
2018-08-03T11:00:44.505Z,94080.00
2018-08-03T11:01:43.436Z,94688.00
2018-08-03T11:02:43.355Z,93760.00
2018-08-03T11:03:43.276Z,92288.00
2018-08-03T11:04:43.229Z,92160.00
2018-08-03T11:05:43.161Z,91712.00
2018-08-03T11:06:43.192Z,91360.00
2018-08-03T11:07:43.059Z,92512.00
2018-08-03T11:10:24.995Z,92032.00
2018-08-03T11:11:45.899Z,89472.00
2018-08-03T11:12:24.824Z,90048.00
2018-08-03T11:13:24.790Z,92000.00
2018-08-03T11:14:24.729Z,92672.00
2018-08-03T11:15:24.803Z,94688.00
2018-08-03T11:16:24.622Z,94560.00
2018-08-03T11:17:24.700Z,93600.00
2018-08-03T11:19:48.947Z,91040.00
2018-08-03T11:20:50.024Z,93248.00
2018-08-03T11:21:48.880Z,91744.00
2018-08-03T11:22:48.880Z,94784.00
2018-08-03T11:23:48.726Z,95200.00
2018-08-03T11:24:48.816Z,92352.00
2018-08-03T11:25:48.615Z,87168.00
2018-08-03T11:26:48.584Z,84128.00
2018-08-03T11:27:48.525Z,83552.00
2018-08-03T11:28:48.513Z,87360.00
2018-08-03T11:29:48.481Z,92576.00
2018-08-03T11:30:48.397Z,96832.00
2018-08-03T11:31:48.299Z,95648.00
2018-08-03T11:32:48.321Z,94880.00
2018-08-03T11:33:48.158Z,94944.00
2018-08-03T11:34:48.130Z,96480.00
2018-08-03T11:35:48.039Z,96384.00
2018-08-03T11:36:48.078Z,94272.00
2018-08-03T11:37:47.932Z,95936.00
2018-08-03T11:38:47.958Z,96832.00
2018-08-03T11:39:47.805Z,98656.00
2018-08-03T11:40:47.882Z,95776.00
2018-08-03T11:41:47.727Z,87584.00
2018-08-03T11:42:47.680Z,90048.00
2018-08-03T11:43:47.670Z,52320.00
2018-08-03T11:44:47.579Z,90656.00
2018-08-03T11:45:47.466Z,86624.00
2018-08-03T11:46:47.494Z,79968.00
2018-08-03T11:47:47.439Z,14092.00
2018-08-03T11:48:47.400Z,12132.00
2018-08-03T11:49:47.238Z,18368.00
2018-08-03T11:50:47.317Z,79200.00
2018-08-03T11:51:47.108Z,85248.00
2018-08-03T11:52:48.290Z,89184.00
2018-08-03T11:53:46.995Z,86624.00
2018-08-03T11:54:47.034Z,76064.00
2018-08-03T11:55:46.881Z,85408.00
2018-08-03T11:58:29.020Z,54080.00
2018-08-03T11:59:28.960Z,23296.00
2018-08-03T12:00:28.835Z,10500.00
2018-08-03T12:01:28.861Z,10028.00
2018-08-03T12:02:28.745Z,10564.00
2018-08-03T12:03:28.754Z,10724.00
2018-08-03T12:04:28.603Z,10052.00
2018-08-03T12:05:28.566Z,11512.00
2018-08-03T12:06:28.540Z,11708.00
2018-08-03T12:07:29.546Z,12324.00
2018-08-03T12:08:28.358Z,12152.00
2018-08-03T12:09:28.405Z,12024.00
2018-08-03T12:10:28.214Z,12580.00
2018-08-03T12:11:28.320Z,12312.00
2018-08-03T12:12:28.175Z,12508.00
2018-08-03T12:13:29.171Z,12208.00
2018-08-03T12:14:27.992Z,12832.00
2018-08-03T12:15:27.924Z,12952.00
2018-08-03T12:16:27.850Z,12352.00
2018-08-03T12:17:27.892Z,12564.00
2018-08-03T12:18:27.732Z,14124.00
2018-08-03T12:19:27.861Z,14340.00
2018-08-03T12:20:27.714Z,14004.00
2018-08-03T12:23:09.469Z,13940.00
2018-08-03T12:24:09.517Z,14380.00
2018-08-03T12:25:09.348Z,14476.00
2018-08-03T12:26:09.376Z,14104.00
2018-08-03T12:27:09.210Z,13976.00
2018-08-03T12:28:10.312Z,14048.00
2018-08-03T12:29:09.073Z,14584.00
2018-08-03T12:31:51.073Z,13840.00
2018-08-03T12:32:50.994Z,13380.00
2018-08-03T12:33:50.831Z,13096.00
2018-08-03T12:34:50.883Z,12824.00
2018-08-03T12:35:50.765Z,12832.00
2018-08-03T12:36:50.708Z,12920.00
2018-08-03T12:37:50.597Z,12888.00
2018-08-03T12:38:50.594Z,12584.00
2018-08-03T12:39:50.480Z,12432.00
2018-08-03T12:40:50.448Z,12224.00
2018-08-03T12:41:50.304Z,12172.00
2018-08-03T12:42:50.314Z,12388.00
2018-08-03T12:43:50.179Z,12600.00
2018-08-03T12:44:50.172Z,12896.00
2018-08-03T12:45:50.072Z,13048.00
2018-08-03T12:48:32.017Z,13348.00
2018-08-03T12:49:33.019Z,13592.00
2018-08-03T12:50:31.871Z,13616.00
2018-08-03T12:51:31.863Z,13296.00
2018-08-03T12:52:31.778Z,12896.00
2018-08-03T12:53:31.657Z,12540.00
2018-08-03T12:54:31.680Z,12380.00
2018-08-03T12:57:13.489Z,12416.00
2018-08-03T12:58:13.452Z,12096.00
2018-08-03T12:59:13.380Z,11896.00
2018-08-03T13:00:13.309Z,11600.00
2018-08-03T13:01:13.244Z,11472.00
2018-08-03T13:02:13.154Z,11464.00
2018-08-03T13:03:13.100Z,11516.00
2018-08-03T13:04:13.066Z,11424.00
2018-08-03T13:05:12.954Z,11692.00
2018-08-03T13:06:12.886Z,11800.00
2018-08-03T13:07:12.836Z,11352.00
2018-08-03T13:09:55.014Z,10504.00
2018-08-03T13:10:54.938Z,10860.00
2018-08-03T13:11:54.856Z,11064.00
2018-08-03T13:12:54.937Z,11204.00
2018-08-03T13:13:54.713Z,10924.00
2018-08-03T13:14:54.880Z,10528.00
2018-08-03T13:15:54.586Z,10132.00
2018-08-03T13:16:54.642Z,9840.00
2018-08-03T13:17:54.457Z,9472.00
2018-08-03T13:18:54.437Z,9224.00
2018-08-03T13:38:16.555Z,7816.00
2018-08-03T13:39:16.488Z,7704.00
2018-08-03T13:40:16.392Z,7500.00
2018-08-03T13:41:16.445Z,7316.00
2018-08-03T13:42:16.296Z,7200.00
2018-08-03T13:43:16.321Z,7096.00
2018-08-03T13:44:16.127Z,7076.00
2018-08-03T13:45:16.128Z,7028.00
2018-08-03T13:46:16.007Z,7136.00
2018-08-03T13:47:16.038Z,7208.00
2018-08-03T13:48:15.857Z,7284.00
2018-08-03T13:49:15.949Z,7376.00
2018-08-03T13:50:15.745Z,7548.00
2018-08-03T13:51:15.789Z,7520.00
2018-08-03T13:52:15.600Z,7548.00
2018-08-03T13:53:15.594Z,7564.00
2018-08-03T13:54:15.472Z,7604.00
2018-08-03T13:55:15.480Z,7788.00
2018-08-03T13:56:15.358Z,8048.00
2018-08-03T13:57:16.365Z,8288.00
2018-08-03T13:58:15.326Z,8392.00
2018-08-03T13:59:15.192Z,8564.00
2018-08-03T14:00:15.055Z,8824.00
2018-08-03T14:02:57.067Z,8952.00
2018-08-03T14:05:39.035Z,7976.00
2018-08-03T14:06:38.992Z,7772.00
2018-08-03T14:07:38.899Z,7612.00
2018-08-03T14:08:38.904Z,7576.00
2018-08-03T14:09:38.753Z,7504.00
2018-08-03T14:10:38.717Z,7428.00
2018-08-03T14:11:38.612Z,7372.00
2018-08-03T14:12:39.691Z,7212.00
2018-08-03T14:13:38.464Z,7172.00
2018-08-03T14:14:38.445Z,7184.00
2018-08-03T14:15:38.328Z,7024.00
2018-08-03T14:16:38.359Z,6924.00
2018-08-03T14:17:38.228Z,6852.00
2018-08-03T14:18:38.246Z,6712.00
2018-08-03T14:19:38.063Z,6400.00
2018-08-03T14:20:38.054Z,6360.00
2018-08-03T14:21:37.930Z,6340.00
2018-08-03T14:22:37.967Z,6344.00
2018-08-03T14:23:37.812Z,6300.00
2018-08-03T14:26:20.013Z,6268.00
2018-08-03T14:27:20.024Z,6276.00
2018-08-03T14:28:19.920Z,6180.00
2018-08-03T14:29:19.901Z,6024.00
2018-08-03T14:30:19.740Z,5952.00
2018-08-03T14:31:19.867Z,5876.00